createdAt,value
2018-11-06T00:02:41.490Z,11.63
2018-11-06T00:07:45.260Z,11.37
2018-11-06T00:12:48.357Z,11.83
2018-11-06T00:17:51.463Z,11.90
2018-11-06T00:22:54.529Z,11.80
2018-11-06T00:27:57.610Z,11.90
2018-11-06T00:33:00.696Z,11.90
2018-11-06T00:38:03.771Z,12.60
2018-11-06T00:43:06.842Z,11.33
2018-11-06T00:48:09.922Z,11.33
2018-11-06T00:53:13.008Z,12.53
2018-11-06T00:58:16.104Z,11.53
2018-11-06T01:03:19.192Z,12.10
2018-11-06T01:08:22.305Z,11.77
2018-11-06T01:13:30.379Z,11.97
2018-11-06T01:18:33.448Z,11.60
2018-11-06T01:23:36.632Z,12.00
2018-11-06T01:28:39.707Z,11.63
2018-11-06T01:33:42.822Z,10.97
2018-11-06T01:38:45.925Z,11.97
2018-11-06T01:43:49.068Z,11.43
2018-11-06T01:48:52.156Z,11.23
2018-11-06T01:53:55.228Z,11.73
2018-11-06T01:58:58.316Z,12.10
2018-11-06T02:04:01.374Z,10.53
2018-11-06T02:09:06.942Z,12.27
2018-11-06T02:14:10.053Z,11.97
2018-11-06T02:19:13.145Z,11.83
2018-11-06T02:24:16.233Z,11.57
2018-11-06T02:29:20.474Z,12.97
2018-11-06T02:34:23.556Z,12.57
2018-11-06T02:39:26.615Z,12.03
2018-11-06T02:44:29.717Z,12.30
2018-11-06T02:49:32.807Z,11.93
2018-11-06T02:54:36.198Z,12.20
2018-11-06T02:59:39.305Z,12.33
2018-11-06T03:04:42.397Z,11.20
2018-11-06T03:09:45.478Z,11.63
2018-11-06T03:14:48.580Z,11.90
2018-11-06T03:19:51.657Z,11.47
2018-11-06T03:24:54.847Z,11.40
2018-11-06T03:29:57.951Z,12.43
2018-11-06T03:35:01.033Z,13.27
2018-11-06T03:40:04.467Z,11.20
2018-11-06T03:45:07.963Z,12.70
2018-11-06T03:50:12.192Z,12.73
2018-11-06T03:55:15.281Z,11.97
2018-11-06T04:00:18.426Z,11.57
2018-11-06T04:05:21.488Z,11.70
2018-11-06T04:10:24.579Z,12.67
2018-11-06T04:15:27.672Z,11.80
2018-11-06T04:20:30.764Z,12.43
2018-11-06T04:25:40.611Z,11.87
2018-11-06T04:30:43.702Z,12.67
2018-11-06T04:35:46.798Z,12.80
2018-11-06T04:40:49.919Z,12.07
2018-11-06T04:45:59.767Z,11.77
2018-11-06T04:51:02.852Z,12.27
2018-11-06T04:56:05.991Z,13.20
2018-11-06T05:01:09.093Z,11.93
2018-11-06T05:06:12.232Z,12.67
2018-11-06T05:11:15.531Z,13.30
2018-11-06T05:16:18.651Z,13.93
2018-11-06T05:21:21.731Z,13.17
2018-11-06T05:26:24.838Z,13.13
2018-11-06T05:31:28.136Z,14.73
2018-11-06T05:36:31.399Z,14.13
2018-11-06T05:41:34.496Z,14.90
2018-11-06T05:46:37.596Z,14.60
2018-11-06T05:51:40.688Z,15.10
2018-11-06T05:56:43.760Z,15.73
2018-11-06T06:01:47.664Z,17.10
2018-11-06T06:06:50.763Z,15.33
2018-11-06T06:11:53.854Z,17.07
2018-11-06T06:16:57.030Z,14.93
2018-11-06T06:22:00.068Z,13.77
2018-11-06T06:27:03.369Z,14.13
2018-11-06T06:32:19.564Z,14.03
2018-11-06T06:37:37.905Z,13.67
2018-11-06T06:42:41.325Z,14.30
2018-11-06T06:47:44.403Z,13.80
2018-11-06T06:52:47.849Z,14.17
2018-11-06T06:57:50.732Z,14.97
2018-11-06T07:02:53.809Z,13.37
2018-11-06T07:07:57.121Z,13.40
2018-11-06T07:13:00.503Z,14.40
2018-11-06T07:18:03.559Z,14.73
2018-11-06T07:23:06.644Z,15.33
2018-11-06T07:28:09.745Z,14.27
2018-11-06T07:33:12.843Z,15.90
2018-11-06T07:38:15.937Z,15.10
2018-11-06T07:43:19.086Z,14.33
2018-11-06T07:48:22.188Z,14.77
2018-11-06T07:53:25.304Z,15.60
2018-11-06T07:58:28.399Z,16.57
2018-11-06T08:03:31.501Z,17.60
2018-11-06T08:08:34.597Z,15.03
2018-11-06T08:13:37.874Z,16.03
2018-11-06T08:18:40.966Z,16.07
2018-11-06T08:23:44.132Z,14.97
2018-11-06T08:28:47.172Z,15.27
2018-11-06T08:33:50.261Z,16.00
2018-11-06T08:38:53.360Z,15.83
2018-11-06T08:43:56.464Z,15.27
2018-11-06T08:48:59.552Z,15.33
2018-11-06T08:54:02.630Z,16.00
2018-11-06T08:59:05.728Z,14.73
2018-11-06T09:09:18.273Z,15.63
2018-11-06T09:14:21.349Z,16.80
2018-11-06T09:19:24.436Z,16.93
2018-11-06T09:24:27.507Z,16.77
2018-11-06T09:29:32.813Z,15.80
2018-11-06T09:34:35.915Z,16.30
2018-11-06T09:39:39.024Z,16.43
2018-11-06T09:44:42.496Z,16.67
2018-11-06T09:49:45.593Z,16.93
2018-11-06T09:54:48.724Z,14.87
2018-11-06T09:59:56.622Z,16.37
2018-11-06T10:04:59.712Z,14.70
2018-11-06T10:10:11.441Z,15.00
2018-11-06T10:15:21.265Z,16.30
2018-11-06T10:20:24.329Z,15.23
2018-11-06T10:25:27.429Z,15.40
2018-11-06T10:30:30.548Z,14.93
2018-11-06T10:35:56.556Z,14.30
2018-11-06T10:40:59.664Z,14.57
2018-11-06T10:46:09.469Z,14.90
2018-11-06T10:51:12.644Z,15.40
2018-11-06T10:56:15.744Z,14.03
2018-11-06T11:12:16.041Z,14.07
2018-11-06T11:17:19.127Z,13.87
2018-11-06T11:22:22.213Z,13.93
2018-11-06T11:27:25.284Z,13.33
2018-11-06T11:32:28.375Z,13.83
2018-11-06T11:37:31.540Z,14.20
2018-11-06T11:42:40.879Z,13.77
2018-11-06T11:47:44.060Z,13.57
2018-11-06T11:52:47.153Z,14.07
2018-11-06T11:57:50.260Z,12.97
2018-11-06T12:02:53.330Z,13.20
2018-11-06T12:07:57.131Z,12.93
2018-11-06T12:13:07.989Z,14.27
2018-11-06T12:18:11.139Z,13.83
2018-11-06T12:23:14.165Z,13.70
2018-11-06T12:28:17.246Z,14.20
2018-11-06T12:33:20.324Z,13.57
2018-11-06T12:38:23.552Z,13.20
2018-11-06T12:43:45.161Z,12.33
2018-11-06T12:48:48.254Z,13.23
2018-11-06T12:53:51.325Z,13.37
2018-11-06T12:58:54.413Z,14.10
2018-11-06T15:44:37.745Z,18.97
2018-11-06T15:49:40.845Z,15.57
2018-11-06T15:54:43.976Z,15.67
2018-11-06T15:59:47.039Z,15.70
2018-11-06T16:04:50.116Z,15.50
2018-11-06T16:09:53.212Z,14.97
2018-11-06T16:14:56.304Z,15.20
2018-11-06T16:19:59.368Z,15.10
2018-11-06T16:25:02.473Z,14.93
2018-11-06T16:30:07.337Z,16.17
2018-11-06T16:35:14.818Z,16.53
2018-11-06T16:40:18.236Z,14.53
2018-11-06T16:45:22.274Z,15.33
2018-11-06T16:50:25.380Z,15.03
2018-11-06T16:55:28.479Z,15.87
2018-11-06T17:00:31.630Z,17.60
2018-11-06T17:05:34.716Z,17.43
2018-11-06T17:10:37.856Z,18.77
2018-11-06T17:15:40.936Z,18.57
2018-11-06T17:20:44.213Z,18.83
2018-11-06T17:25:47.691Z,16.87
2018-11-06T17:30:50.984Z,17.40
2018-11-06T17:35:54.164Z,17.00
2018-11-06T17:40:57.538Z,17.83
2018-11-06T17:46:00.669Z,19.20
2018-11-06T17:51:03.893Z,17.73
2018-11-06T17:56:07.230Z,18.37
2018-11-06T18:01:10.655Z,20.47
2018-11-06T18:06:13.796Z,22.87
2018-11-06T18:11:17.207Z,21.07
2018-11-06T18:16:20.324Z,19.73
2018-11-06T18:21:23.527Z,20.40
2018-11-06T18:26:26.652Z,19.70
2018-11-06T18:31:29.787Z,20.37
2018-11-06T18:36:32.997Z,19.83
2018-11-06T18:41:36.113Z,19.30
2018-11-06T18:46:39.209Z,18.87
2018-11-06T18:51:42.293Z,19.30
2018-11-06T18:56:45.403Z,19.67
2018-11-06T19:01:48.496Z,18.97
2018-11-06T19:06:51.620Z,20.57
2018-11-06T19:11:54.764Z,19.83
2018-11-06T19:16:59.174Z,19.80
2018-11-06T19:22:02.503Z,19.80
2018-11-06T19:27:05.688Z,22.13
2018-11-06T19:32:09.231Z,21.83
2018-11-06T19:37:12.793Z,21.70
2018-11-06T19:42:16.228Z,21.00
2018-11-06T19:47:19.557Z,21.47
2018-11-06T19:52:22.925Z,22.33
2018-11-06T19:57:26.303Z,21.17
2018-11-06T20:02:29.682Z,22.43
2018-11-06T20:07:32.923Z,21.30
2018-11-06T20:12:36.060Z,22.20
2018-11-06T20:17:40.311Z,22.87
2018-11-06T20:22:44.317Z,22.63
2018-11-06T20:27:47.708Z,22.27
2018-11-06T20:32:51.079Z,22.37
2018-11-06T20:37:54.386Z,21.70
2018-11-06T20:42:57.541Z,20.60
2018-11-06T20:48:00.541Z,20.57
2018-11-06T20:53:04.236Z,19.67
2018-11-06T20:58:07.480Z,20.50
2018-11-06T21:03:10.980Z,18.50
2018-11-06T21:08:14.261Z,18.83
2018-11-06T21:13:18.202Z,18.80
2018-11-06T21:18:21.381Z,19.47
2018-11-06T21:23:24.912Z,19.87
2018-11-06T21:28:28.922Z,17.00
2018-11-06T21:33:32.037Z,17.33
2018-11-06T21:38:35.185Z,17.17
2018-11-06T21:43:38.292Z,16.67
2018-11-06T21:48:41.475Z,16.47
2018-11-06T21:53:44.625Z,16.67
2018-11-06T21:58:47.811Z,17.30
2018-11-06T22:03:50.860Z,17.67
2018-11-06T22:08:53.998Z,17.67
2018-11-06T22:13:57.104Z,17.83
2018-11-06T22:19:00.216Z,17.60
2018-11-06T22:24:03.318Z,18.20
2018-11-06T22:29:06.525Z,19.13
2018-11-06T22:34:09.653Z,19.80
2018-11-06T22:39:12.759Z,18.40
2018-11-06T22:44:15.880Z,20.27
2018-11-06T22:49:18.993Z,20.17
2018-11-06T22:54:22.082Z,21.10
2018-11-06T22:59:25.186Z,20.73
2018-11-06T23:04:28.289Z,20.47
2018-11-06T23:09:31.382Z,20.63
2018-11-06T23:14:34.492Z,21.33
2018-11-06T23:19:38.116Z,21.63
2018-11-06T23:24:41.229Z,21.30
2018-11-06T23:29:44.315Z,19.47
2018-11-06T23:34:47.424Z,17.23
2018-11-06T23:39:50.537Z,18.47
2018-11-06T23:44:53.615Z,19.90
2018-11-06T23:49:56.728Z,17.73
2018-11-06T23:55:00.205Z,17.40
